This is the latest recevied weather packets stored in our database for station/object Kisslegg. If no packets are shown the sender has not sent any weather packets the latest 10 day(s).
| Time | Temp. | Humidity | Pressure | Rain* | Wind** | Luminosity | Snow |
|---|---|---|---|---|---|---|---|
| 1777782731 | 11.67° C | 69% | 1014.7 hPa | 0 mm | - | - | - |
| 1777780930 | 10.56° C | 72% | 1014.7 hPa | 0 mm | - | - | - |
| 1777779131 | 11.11° C | 73% | 1014.8 hPa | 0 mm | - | - | - |
| 1777777331 | 11.67° C | 73% | 1014.8 hPa | 0 mm | - | - | - |
| 1777775531 | 11.11° C | 71% | 1015 hPa | 0 mm | - | - | - |
| 1777773731 | 12.22° C | 67% | 1015.2 hPa | 0 mm | - | - | - |
| 1777771931 | 12.78° C | 64% | 1015.2 hPa | 0 mm | - | - | - |
| 1777770132 | 12.78° C | 64% | 1015.3 hPa | 0 mm | - | - | - |
| 1777768329 | 13.33° C | 63% | 1015.3 hPa | 0 mm | - | - | - |
| 1777766530 | 13.89° C | 59% | 1015.3 hPa | 0 mm | - | - | - |
| 1777764730 | 13.89° C | 58% | 1015.6 hPa | 0 mm | - | - | - |
| 1777762930 | 13.89° C | 60% | 1015.6 hPa | 0 mm | - | - | - |
| 1777761131 | 16.11° C | 51% | 1015.7 hPa | 0 mm | - | - | - |
| 1777759330 | 16.11° C | 50% | 1015.6 hPa | 0 mm | - | - | - |
| 1777757530 | 16.67° C | 49% | 1015.7 hPa | 0 mm | - | - | - |
| 1777755729 | 16.67° C | 50% | 1016 hPa | 0 mm | - | - | - |
| 1777753930 | 17.78° C | 46% | 1016.2 hPa | 0 mm | - | - | - |
| 1777752130 | 17.78° C | 45% | 1016.5 hPa | 0 mm | - | - | - |
| 1777750335 | 18.33° C | 45% | 1016.5 hPa | 0 mm | - | - | - |
| 1777748537 | 19.44° C | 42% | 1016.3 hPa | 0 mm | - | - | - |
| 1777746730 | 20.56° C | 38% | 1016.2 hPa | 0 mm | - | - | - |
| 1777744931 | 21.67° C | 38% | 1016.2 hPa | 0 mm | - | - | - |
| 1777743130 | 22.22° C | 39% | 1016.3 hPa | 0 mm | - | - | - |
| 1777741330 | 22.78° C | 36% | 1016.4 hPa | 0 mm | - | - | - |
| 1777739530 | 22.78° C | 39% | 1016.6 hPa | 0 mm | - | - | - |
* Rain since midnight (hover to see other rain measurements)
** Current wind speed in m/s (hover to see current wind gust speed)